createdAt,value
2022-08-09T00:00:00.607Z,18.60
2022-08-09T00:02:33.277Z,18.66
2022-08-09T00:06:15.685Z,18.66
2022-08-09T00:07:52.313Z,18.60
2022-08-09T00:10:24.554Z,18.54
2022-08-09T00:12:53.576Z,18.47
2022-08-09T00:15:26.428Z,18.40
2022-08-09T00:18:12.041Z,18.41
2022-08-09T00:20:42.160Z,18.42
2022-08-09T00:23:57.652Z,18.44
2022-08-09T00:26:08.777Z,18.40
2022-08-09T00:28:40.640Z,18.42
2022-08-09T00:31:30.709Z,18.45
2022-08-09T00:33:57.363Z,18.37
2022-08-09T00:36:29.603Z,18.29
2022-08-09T00:39:00.523Z,18.24
2022-08-09T00:44:15.995Z,18.24
2022-08-09T00:44:24.729Z,18.23
2022-08-09T00:47:05.027Z,18.21
2022-08-09T00:49:34.087Z,18.19
2022-08-09T00:52:05.087Z,18.18
2022-08-09T00:54:36.439Z,18.19
2022-08-09T00:57:10.408Z,18.20
2022-08-09T00:59:41.601Z,18.16
2022-08-09T01:02:20.475Z,18.07
2022-08-09T01:04:58.441Z,18.05
2022-08-09T01:07:37.910Z,17.96
2022-08-09T01:10:35.483Z,17.96
2022-08-09T01:13:09.884Z,17.91
2022-08-09T01:15:52.108Z,17.85
2022-08-09T01:18:29.894Z,17.84
2022-08-09T01:21:17.213Z,17.84
2022-08-09T01:24:02.075Z,17.82
2022-08-09T01:26:54.202Z,17.79
2022-08-09T01:29:28.340Z,17.78
2022-08-09T01:32:29.948Z,17.71
2022-08-09T01:35:18.040Z,17.68
2022-08-09T01:38:08.328Z,17.66
2022-08-09T01:40:45.166Z,17.60
2022-08-09T01:43:24.033Z,17.60
2022-08-09T01:45:58.021Z,17.66
2022-08-09T01:48:29.640Z,17.65
2022-08-09T01:51:00.756Z,17.63
2022-08-09T01:53:41.360Z,17.60
2022-08-09T01:56:11.570Z,17.58
2022-08-09T01:58:43.991Z,17.59
2022-08-09T02:01:18.716Z,17.56
2022-08-09T02:03:50.703Z,17.58
2022-08-09T02:06:45.550Z,17.58
2022-08-09T02:09:27.668Z,17.52
2022-08-09T02:12:18.173Z,17.50
2022-08-09T02:14:53.418Z,17.50
2022-08-09T02:17:59.297Z,17.49
2022-08-09T02:20:25.321Z,17.46
2022-08-09T02:23:06.196Z,17.48
2022-08-09T02:25:42.701Z,17.47
2022-08-09T02:28:24.171Z,17.50
2022-08-09T02:30:59.750Z,17.49
2022-08-09T02:33:37.866Z,17.31
2022-08-09T02:36:26.358Z,17.33
2022-08-09T02:38:58.088Z,17.33
2022-08-09T02:41:29.281Z,17.32
2022-08-09T02:44:10.396Z,17.36
2022-08-09T02:46:52.725Z,17.33
2022-08-09T02:49:38.249Z,17.30
2022-08-09T02:52:08.791Z,17.28
2022-08-09T02:54:54.265Z,17.22
2022-08-09T02:57:27.283Z,17.21
2022-08-09T03:00:21.588Z,17.19
2022-08-09T03:02:58.283Z,17.13
2022-08-09T03:05:29.212Z,17.16
2022-08-09T03:07:57.968Z,17.18
2022-08-09T03:10:27.354Z,17.15
2022-08-09T03:12:57.626Z,17.15
2022-08-09T03:15:40.538Z,17.10
2022-08-09T03:18:30.611Z,17.12
2022-08-09T03:21:02.939Z,17.08
2022-08-09T03:23:31.390Z,17.04
2022-08-09T03:26:04.900Z,17.06
2022-08-09T03:28:35.038Z,16.97
2022-08-09T03:31:09.977Z,16.94
2022-08-09T03:33:54.982Z,16.93
2022-08-09T03:36:27.326Z,16.88
2022-08-09T03:38:57.190Z,16.84
2022-08-09T03:41:44.742Z,16.80
2022-08-09T03:44:15.574Z,16.77
2022-08-09T03:46:43.831Z,16.71
2022-08-09T03:49:17.352Z,16.74
2022-08-09T03:51:59.110Z,16.78
2022-08-09T03:54:32.286Z,16.70
2022-08-09T03:57:04.397Z,16.72
2022-08-09T03:59:54.172Z,16.70
2022-08-09T04:02:26.449Z,16.68
2022-08-09T04:04:58.452Z,16.68
2022-08-09T04:07:33.658Z,16.71
2022-08-09T04:10:15.496Z,16.69
2022-08-09T04:12:50.934Z,16.68
2022-08-09T04:15:40.437Z,16.65
2022-08-09T04:18:08.787Z,16.63
2022-08-09T04:20:38.105Z,16.64
2022-08-09T04:23:09.940Z,16.55
2022-08-09T04:25:45.037Z,16.57
2022-08-09T04:28:34.003Z,16.61
2022-08-09T04:31:08.981Z,16.57
2022-08-09T04:33:52.497Z,16.49
2022-08-09T04:36:27.971Z,16.51
2022-08-09T04:38:59.108Z,16.52
2022-08-09T04:41:32.638Z,16.58
2022-08-09T04:44:06.915Z,16.65
2022-08-09T04:46:57.545Z,16.67
2022-08-09T04:49:40.585Z,16.65
2022-08-09T04:52:18.199Z,16.72
2022-08-09T04:54:51.621Z,16.73
2022-08-09T04:57:23.743Z,16.68
2022-08-09T04:59:54.684Z,16.78
2022-08-09T05:02:23.036Z,16.76
2022-08-09T05:04:55.229Z,16.81
2022-08-09T05:07:29.373Z,16.86
2022-08-09T05:10:02.111Z,16.94
2022-08-09T05:12:33.265Z,16.93
2022-08-09T05:15:03.465Z,17.01
2022-08-09T05:18:38.365Z,17.04
2022-08-09T05:20:19.746Z,17.05
2022-08-09T05:23:54.541Z,17.06
2022-08-09T05:25:38.479Z,17.21
2022-08-09T05:28:09.740Z,17.28
2022-08-09T05:30:37.639Z,17.27
2022-08-09T05:33:09.727Z,17.31
2022-08-09T05:35:46.601Z,17.36
2022-08-09T05:38:21.713Z,17.38
2022-08-09T05:40:50.818Z,17.37
2022-08-09T05:43:19.148Z,17.47
2022-08-09T05:45:55.863Z,17.50
2022-08-09T05:48:32.811Z,17.58
2022-08-09T05:51:42.446Z,17.68
2022-08-09T05:53:56.802Z,17.73
2022-08-09T05:56:27.222Z,17.79
2022-08-09T05:58:58.765Z,17.78
2022-08-09T06:01:34.190Z,17.86
2022-08-09T06:04:12.346Z,17.91
2022-08-09T06:06:45.234Z,18.00
2022-08-09T06:09:40.849Z,18.03
2022-08-09T06:12:08.030Z,18.06
2022-08-09T06:14:36.221Z,17.98
2022-08-09T06:17:05.037Z,18.01
2022-08-09T06:19:37.198Z,18.16
2022-08-09T06:22:06.235Z,18.34
2022-08-09T06:24:44.272Z,18.36
2022-08-09T06:27:12.164Z,18.41
2022-08-09T06:29:48.370Z,18.64
2022-08-09T06:33:13.115Z,18.78
2022-08-09T06:35:20.292Z,18.92
2022-08-09T06:37:53.275Z,18.99
2022-08-09T06:40:35.564Z,19.05
2022-08-09T06:43:04.429Z,18.99
2022-08-09T06:46:07.697Z,18.94
2022-08-09T06:48:26.085Z,19.14
2022-08-09T06:50:58.814Z,19.40
2022-08-09T06:53:38.156Z,19.68
2022-08-09T06:56:09.116Z,21.41
2022-08-09T07:00:47.023Z,23.76
2022-08-09T07:01:35.703Z,25.66
2022-08-09T07:04:20.198Z,27.11
2022-08-09T07:06:48.428Z,28.68
2022-08-09T07:09:56.158Z,29.72
2022-08-09T07:12:13.709Z,30.29
2022-08-09T07:14:51.452Z,30.98
2022-08-09T07:17:21.797Z,31.18
2022-08-09T07:19:50.818Z,31.84
2022-08-09T07:22:34.232Z,30.74
2022-08-09T07:25:05.483Z,30.96
2022-08-09T07:27:42.942Z,31.11
2022-08-09T07:30:24.556Z,30.80
2022-08-09T07:32:55.923Z,30.61
2022-08-09T07:35:25.763Z,30.74
2022-08-09T07:37:54.146Z,31.60
2022-08-09T07:40:37.404Z,33.39
2022-08-09T07:43:17.302Z,34.06
2022-08-09T07:45:45.372Z,34.84
2022-08-09T07:48:25.321Z,34.08
2022-08-09T07:51:09.206Z,34.35
2022-08-09T07:54:06.892Z,34.45
2022-08-09T07:56:38.742Z,34.11
2022-08-09T07:59:25.189Z,35.37
2022-08-09T08:01:55.792Z,35.60
2022-08-09T08:04:31.321Z,35.46
2022-08-09T08:07:00.208Z,35.18
2022-08-09T08:09:42.946Z,35.52
2022-08-09T08:12:27.930Z,36.31
2022-08-09T08:14:59.584Z,36.41
2022-08-09T08:17:52.455Z,36.82
2022-08-09T08:20:15.731Z,37.06
2022-08-09T08:22:44.610Z,37.13
2022-08-09T08:25:17.099Z,37.08
2022-08-09T08:27:49.801Z,37.03
2022-08-09T08:30:19.507Z,35.90
2022-08-09T08:32:52.837Z,34.56
2022-08-09T08:35:22.966Z,34.53
2022-08-09T08:37:59.626Z,35.12
2022-08-09T08:40:33.696Z,36.40
2022-08-09T08:43:02.231Z,36.06
2022-08-09T08:45:37.193Z,36.40
2022-08-09T08:48:06.951Z,36.93
2022-08-09T08:50:38.814Z,37.03
2022-08-09T08:53:11.940Z,37.27
2022-08-09T08:55:44.656Z,36.35
2022-08-09T08:58:12.816Z,36.41
2022-08-09T09:00:42.909Z,35.33
2022-08-09T09:03:22.735Z,36.74
2022-08-09T09:06:04.749Z,36.66
2022-08-09T09:08:37.993Z,37.37
2022-08-09T09:11:13.673Z,37.03
2022-08-09T09:13:57.451Z,34.85
2022-08-09T09:16:32.438Z,35.91
2022-08-09T09:22:05.135Z,37.86
2022-08-09T09:24:38.764Z,36.90
2022-08-09T09:27:08.889Z,36.85
2022-08-09T09:30:07.186Z,36.85
2022-08-09T09:32:32.203Z,34.59
2022-08-09T09:35:09.615Z,32.75
2022-08-09T09:37:40.334Z,31.51
2022-08-09T09:40:11.831Z,30.86
2022-08-09T09:42:46.037Z,31.94
2022-08-09T09:45:25.916Z,33.21
2022-08-09T09:47:59.559Z,33.39
2022-08-09T09:50:49.575Z,33.08
2022-08-09T09:53:44.032Z,32.34
2022-08-09T09:56:30.817Z,32.01
2022-08-09T09:58:58.805Z,31.87
2022-08-09T10:01:36.921Z,31.65
2022-08-09T10:04:15.909Z,30.60
2022-08-09T10:06:46.975Z,29.96
2022-08-09T10:09:22.357Z,29.28
2022-08-09T10:12:07.763Z,28.97
2022-08-09T10:14:47.732Z,28.58
2022-08-09T10:17:39.887Z,28.29
2022-08-09T10:20:27.806Z,28.12
2022-08-09T10:23:17.333Z,27.93
2022-08-09T10:26:07.111Z,28.11
2022-08-09T10:28:38.555Z,28.03
2022-08-09T10:32:20.583Z,28.40
2022-08-09T10:34:08.620Z,27.56
2022-08-09T10:36:46.823Z,27.66
2022-08-09T10:39:20.049Z,28.07
2022-08-09T10:41:48.495Z,28.47
2022-08-09T10:44:21.700Z,28.55
2022-08-09T10:48:12.852Z,28.27
2022-08-09T10:50:05.767Z,27.61
2022-08-09T10:53:12.848Z,27.93
2022-08-09T10:55:57.901Z,27.79
2022-08-09T10:58:33.407Z,28.02
2022-08-09T11:03:03.033Z,28.25
2022-08-09T11:04:19.859Z,28.52
2022-08-09T11:07:57.749Z,28.72
2022-08-09T11:10:59.800Z,28.87
2022-08-09T11:13:50.588Z,28.94
2022-08-09T11:16:37.268Z,28.79
2022-08-09T11:19:10.547Z,28.60
2022-08-09T11:22:10.685Z,28.22
2022-08-09T11:25:08.967Z,27.80
2022-08-09T11:28:04.235Z,27.49
2022-08-09T11:30:35.924Z,27.57
2022-08-09T11:33:08.902Z,27.57
2022-08-09T11:35:49.866Z,27.54
2022-08-09T11:38:22.166Z,27.13
2022-08-09T11:40:53.038Z,27.33
2022-08-09T11:43:43.194Z,27.43
2022-08-09T11:46:11.477Z,27.17
2022-08-09T11:48:50.401Z,27.32
2022-08-09T11:53:02.149Z,27.25
2022-08-09T11:54:28.965Z,27.42
2022-08-09T11:58:00.824Z,27.17
2022-08-09T12:00:30.959Z,27.02
2022-08-09T12:03:31.718Z,27.02
2022-08-09T12:05:51.380Z,26.79
2022-08-09T12:08:22.269Z,26.82
2022-08-09T12:10:53.586Z,26.89
2022-08-09T12:14:10.258Z,26.83
2022-08-09T12:16:37.114Z,26.76
2022-08-09T12:19:09.181Z,26.68
2022-08-09T12:21:50.601Z,26.44
2022-08-09T12:24:24.089Z,26.35
2022-08-09T12:29:00.186Z,26.28
2022-08-09T12:30:04.122Z,26.09
2022-08-09T12:32:45.262Z,26.10
2022-08-09T12:35:21.681Z,26.34
2022-08-09T12:37:52.276Z,26.24
2022-08-09T12:40:26.881Z,26.38
2022-08-09T12:42:56.156Z,26.49
2022-08-09T12:45:32.145Z,26.58
2022-08-09T12:48:07.804Z,26.72
2022-08-09T12:50:36.667Z,26.89
2022-08-09T12:53:17.786Z,27.01
2022-08-09T12:56:16.080Z,27.31
2022-08-09T12:58:42.872Z,27.58
2022-08-09T13:01:26.790Z,27.84
2022-08-09T13:03:59.783Z,28.11
2022-08-09T13:06:34.262Z,28.26
2022-08-09T13:09:10.050Z,28.41
2022-08-09T13:11:42.584Z,28.60
2022-08-09T13:14:40.942Z,28.72
2022-08-09T13:17:08.503Z,28.66
2022-08-09T13:20:07.060Z,28.45
2022-08-09T13:22:35.479Z,28.15
2022-08-09T13:25:14.362Z,28.10
2022-08-09T13:27:48.738Z,28.00
2022-08-09T13:30:49.466Z,27.97
2022-08-09T13:33:22.551Z,27.83
2022-08-09T13:36:24.139Z,27.70
2022-08-09T13:38:56.545Z,27.63
2022-08-09T13:41:58.293Z,27.61
2022-08-09T13:44:17.629Z,27.03
2022-08-09T13:47:27.705Z,27.34
2022-08-09T13:49:38.211Z,27.31
2022-08-09T13:52:20.933Z,27.60
2022-08-09T13:55:00.571Z,27.65
2022-08-09T13:57:39.609Z,27.86
2022-08-09T14:00:12.128Z,27.72
2022-08-09T14:02:42.676Z,27.65
2022-08-09T14:05:59.481Z,27.60
2022-08-09T14:08:19.021Z,27.78
2022-08-09T14:10:52.334Z,28.00
2022-08-09T14:14:14.818Z,28.25
2022-08-09T14:16:15.072Z,28.42
2022-08-09T14:18:50.052Z,28.38
2022-08-09T14:21:20.366Z,28.50
2022-08-09T14:23:55.214Z,28.40
2022-08-09T14:26:32.937Z,28.51
2022-08-09T14:29:08.156Z,28.23
2022-08-09T14:31:53.878Z,28.15
2022-08-09T14:34:31.872Z,27.97
2022-08-09T14:37:06.907Z,27.90
2022-08-09T14:39:40.472Z,27.80
2022-08-09T14:42:30.502Z,27.48
2022-08-09T14:46:38.791Z,27.48
2022-08-09T14:47:58.233Z,27.30
2022-08-09T14:50:28.126Z,27.71
2022-08-09T14:52:56.172Z,28.15
2022-08-09T14:55:29.301Z,28.33
2022-08-09T14:58:03.281Z,28.57
2022-08-09T15:00:32.325Z,28.54
2022-08-09T15:03:01.771Z,28.47
2022-08-09T15:05:31.634Z,28.60
2022-08-09T15:08:00.633Z,28.84
2022-08-09T15:10:31.784Z,28.81
2022-08-09T15:13:03.075Z,28.75
2022-08-09T15:15:34.566Z,28.61
2022-08-09T15:18:07.704Z,28.73
2022-08-09T15:21:55.464Z,28.72
2022-08-09T15:24:00.874Z,28.74
2022-08-09T15:26:18.710Z,28.88
2022-08-09T15:28:55.112Z,28.84
2022-08-09T15:31:36.063Z,28.68
2022-08-09T15:34:32.673Z,28.64
2022-08-09T15:36:58.198Z,28.75
2022-08-09T15:39:34.681Z,28.58
2022-08-09T15:42:15.659Z,28.50
2022-08-09T15:44:46.987Z,28.38
2022-08-09T15:47:23.600Z,28.35
2022-08-09T15:50:04.999Z,28.43
2022-08-09T15:52:34.825Z,28.48
2022-08-09T15:55:03.335Z,28.46
2022-08-09T15:57:34.479Z,28.38
2022-08-09T16:00:17.027Z,28.30
2022-08-09T16:02:54.263Z,28.27
2022-08-09T16:05:26.472Z,28.11
2022-08-09T16:08:29.708Z,28.07
2022-08-09T16:10:59.336Z,27.94
2022-08-09T16:14:02.732Z,27.92
2022-08-09T16:16:18.461Z,27.53
2022-08-09T16:18:47.035Z,27.37
2022-08-09T16:21:17.017Z,27.17
2022-08-09T16:23:55.788Z,27.06
2022-08-09T16:26:33.562Z,26.95
2022-08-09T16:29:11.394Z,27.04
2022-08-09T16:32:17.936Z,27.07
2022-08-09T16:34:29.654Z,26.98
2022-08-09T16:37:17.538Z,26.84
2022-08-09T16:39:54.657Z,26.74
2022-08-09T16:42:33.113Z,26.61
2022-08-09T16:45:02.518Z,26.49
2022-08-09T16:48:50.462Z,26.40
2022-08-09T16:50:31.820Z,26.31
2022-08-09T16:53:01.838Z,26.21
2022-08-09T16:55:44.144Z,26.15
2022-08-09T16:58:19.577Z,26.14
2022-08-09T17:00:51.184Z,26.12
2022-08-09T17:03:22.678Z,26.13
2022-08-09T17:06:07.904Z,26.06
2022-08-09T17:08:59.046Z,26.03
2022-08-09T17:11:39.909Z,25.98
2022-08-09T17:14:25.661Z,25.92
2022-08-09T17:16:59.751Z,25.78
2022-08-09T17:20:06.164Z,25.75
2022-08-09T17:22:23.675Z,25.68
2022-08-09T17:24:55.025Z,25.67
2022-08-09T17:27:23.852Z,25.66
2022-08-09T17:29:52.046Z,25.68
2022-08-09T17:32:34.710Z,25.60
2022-08-09T17:35:12.257Z,25.61
2022-08-09T17:38:10.183Z,25.48
2022-08-09T17:40:29.805Z,25.50
2022-08-09T17:43:03.039Z,25.42
2022-08-09T17:46:02.632Z,25.28
2022-08-09T17:48:28.533Z,25.33
2022-08-09T17:51:08.807Z,25.14
2022-08-09T17:53:43.330Z,25.10
2022-08-09T17:56:21.189Z,25.05
2022-08-09T17:58:49.149Z,25.05
2022-08-09T18:01:22.494Z,24.93
2022-08-09T18:03:54.295Z,24.90
2022-08-09T18:06:31.875Z,24.79
2022-08-09T18:09:03.166Z,24.77
2022-08-09T18:12:04.789Z,24.67
2022-08-09T18:14:20.696Z,24.55
2022-08-09T18:16:49.682Z,24.59
2022-08-09T18:20:55.625Z,24.57
2022-08-09T18:22:13.147Z,24.54
2022-08-09T18:24:45.649Z,24.44
2022-08-09T18:27:49.076Z,24.39
2022-08-09T18:30:42.989Z,24.38
2022-08-09T18:32:53.953Z,24.31
2022-08-09T18:35:56.276Z,24.25
2022-08-09T18:38:13.186Z,24.13
2022-08-09T18:40:43.058Z,23.93
2022-08-09T18:43:12.497Z,23.96
2022-08-09T18:46:51.367Z,23.95
2022-08-09T18:48:30.166Z,23.86
2022-08-09T18:51:02.341Z,23.76
2022-08-09T18:53:59.870Z,23.65
2022-08-09T18:56:27.141Z,23.53
2022-08-09T18:58:55.971Z,23.50
2022-08-09T19:01:24.236Z,23.53
2022-08-09T19:04:01.189Z,23.44
2022-08-09T19:06:38.383Z,23.41
2022-08-09T19:09:07.378Z,23.35
2022-08-09T19:11:38.181Z,23.25
2022-08-09T19:14:06.946Z,23.29
2022-08-09T19:16:36.262Z,23.24
2022-08-09T19:19:21.343Z,23.19
2022-08-09T19:22:06.462Z,23.13
2022-08-09T19:25:11.918Z,23.07
2022-08-09T19:27:23.936Z,22.98
2022-08-09T19:30:22.909Z,22.89
2022-08-09T19:32:45.324Z,22.88
2022-08-09T19:35:13.401Z,22.86
2022-08-09T19:37:55.910Z,22.83
2022-08-09T19:40:34.517Z,22.79
2022-08-09T19:43:10.022Z,22.84
2022-08-09T19:45:44.285Z,22.78
2022-08-09T19:48:14.405Z,22.77
2022-08-09T19:50:50.701Z,22.70
2022-08-09T19:53:21.576Z,22.56
2022-08-09T19:56:02.826Z,22.54
2022-08-09T19:58:35.043Z,22.46
2022-08-09T20:01:04.134Z,22.39
2022-08-09T20:04:17.281Z,22.32
2022-08-09T20:06:23.217Z,22.35
2022-08-09T20:08:56.864Z,22.32
2022-08-09T20:11:26.727Z,22.25
2022-08-09T20:13:55.366Z,22.19
2022-08-09T20:16:37.863Z,22.07
2022-08-09T20:19:46.405Z,22.04
2022-08-09T20:22:01.130Z,22.01
2022-08-09T20:24:33.871Z,21.93
2022-08-09T20:27:08.431Z,21.99
2022-08-09T20:29:38.646Z,21.90
2022-08-09T20:32:30.351Z,21.76
2022-08-09T20:34:56.290Z,21.76
2022-08-09T20:37:24.863Z,21.74
2022-08-09T20:40:14.705Z,21.64
2022-08-09T20:42:53.320Z,21.58
2022-08-09T20:46:00.705Z,21.57
2022-08-09T20:48:21.088Z,21.53
2022-08-09T20:50:55.710Z,21.49
2022-08-09T20:53:36.821Z,21.37
2022-08-09T20:56:20.443Z,21.35
2022-08-09T20:58:58.766Z,21.28
2022-08-09T21:01:35.286Z,21.28
2022-08-09T21:05:56.779Z,21.25
2022-08-09T21:07:14.008Z,21.24
2022-08-09T21:09:45.876Z,21.14
2022-08-09T21:15:14.940Z,21.01
2022-08-09T21:18:22.400Z,21.03
2022-08-09T21:20:31.807Z,21.03
2022-08-09T21:23:00.598Z,21.08
2022-08-09T21:25:56.364Z,21.01
2022-08-09T21:28:35.497Z,20.98
2022-08-09T21:31:18.055Z,20.95
2022-08-09T21:33:51.050Z,20.90
2022-08-09T21:36:23.404Z,20.90
2022-08-09T21:38:57.782Z,20.85
2022-08-09T21:42:04.188Z,20.78
2022-08-09T21:44:33.238Z,20.71
2022-08-09T21:47:04.045Z,20.70
2022-08-09T21:49:40.378Z,20.71
2022-08-09T21:52:14.956Z,20.62
2022-08-09T21:54:50.631Z,20.58
2022-08-09T21:57:39.459Z,20.54
2022-08-09T22:00:25.561Z,20.56
2022-08-09T22:02:59.701Z,20.49
2022-08-09T22:05:37.322Z,20.44
2022-08-09T22:08:13.933Z,20.39
2022-08-09T22:11:00.904Z,20.39
2022-08-09T22:13:34.705Z,20.35
2022-08-09T22:16:07.471Z,20.33
2022-08-09T22:18:37.343Z,20.31
2022-08-09T22:21:09.797Z,20.31
2022-08-09T22:23:59.415Z,20.27
2022-08-09T22:26:35.361Z,20.12
2022-08-09T22:29:08.841Z,20.11
2022-08-09T22:31:44.153Z,20.11
2022-08-09T22:34:14.772Z,20.12
2022-08-09T22:36:45.538Z,20.08
2022-08-09T22:39:46.825Z,20.09
2022-08-09T22:42:02.910Z,20.02
2022-08-09T22:44:33.027Z,19.96
2022-08-09T22:48:17.010Z,19.92
2022-08-09T22:49:52.066Z,19.80
2022-08-09T22:52:20.278Z,19.83
2022-08-09T22:54:48.433Z,19.90
2022-08-09T22:57:16.830Z,19.84
2022-08-09T22:59:56.002Z,19.77
2022-08-09T23:02:28.367Z,19.77
2022-08-09T23:04:57.007Z,19.81
2022-08-09T23:08:23.284Z,19.73
2022-08-09T23:10:31.404Z,19.57
2022-08-09T23:12:59.874Z,19.55
2022-08-09T23:15:28.863Z,19.57
2022-08-09T23:17:58.364Z,19.53
2022-08-09T23:20:28.676Z,19.47
2022-08-09T23:22:56.661Z,19.41
2022-08-09T23:25:24.539Z,19.43
2022-08-09T23:28:00.557Z,19.41
2022-08-09T23:30:40.598Z,19.41
2022-08-09T23:33:21.254Z,19.42
2022-08-09T23:36:05.811Z,19.42
2022-08-09T23:38:34.887Z,19.37
2022-08-09T23:41:03.879Z,19.38
2022-08-09T23:43:32.155Z,19.38
2022-08-09T23:46:00.495Z,19.38
2022-08-09T23:48:29.831Z,19.34
2022-08-09T23:50:58.022Z,19.24
2022-08-09T23:53:28.988Z,19.21
2022-08-09T23:56:03.938Z,19.21
2022-08-09T23:58:35.041Z,19.22
